sensor_id;sensor_type;location;lat;lon;timestamp;P1;durP1;ratioP1;P2;durP2;ratioP2
54261;SDS011;40174;52.364;6.452;2022-08-18T00:00:43;21.52;;;10.63;;
54261;SDS011;40174;52.364;6.452;2022-08-18T00:03:10;20.65;;;11.07;;
54261;SDS011;40174;52.364;6.452;2022-08-18T00:05:37;21.58;;;10.93;;
54261;SDS011;40174;52.364;6.452;2022-08-18T00:08:04;20.95;;;11.02;;
54261;SDS011;40174;52.364;6.452;2022-08-18T00:10:31;18.80;;;10.50;;
54261;SDS011;40174;52.364;6.452;2022-08-18T00:12:58;18.75;;;10.85;;
54261;SDS011;40174;52.364;6.452;2022-08-18T00:15:26;24.00;;;11.35;;
54261;SDS011;40174;52.364;6.452;2022-08-18T00:17:53;27.13;;;11.23;;
54261;SDS011;40174;52.364;6.452;2022-08-18T00:20:20;19.65;;;10.68;;
54261;SDS011;40174;52.364;6.452;2022-08-18T00:22:49;22.27;;;11.50;;
54261;SDS011;40174;52.364;6.452;2022-08-18T00:25:16;19.23;;;10.38;;
54261;SDS011;40174;52.364;6.452;2022-08-18T00:27:45;21.88;;;11.25;;
54261;SDS011;40174;52.364;6.452;2022-08-18T00:30:12;21.60;;;11.32;;
54261;SDS011;40174;52.364;6.452;2022-08-18T00:32:43;21.85;;;11.32;;
54261;SDS011;40174;52.364;6.452;2022-08-18T00:35:13;20.45;;;10.75;;
54261;SDS011;40174;52.364;6.452;2022-08-18T00:37:43;20.88;;;11.40;;
54261;SDS011;40174;52.364;6.452;2022-08-18T00:40:11;21.50;;;11.70;;
54261;SDS011;40174;52.364;6.452;2022-08-18T00:42:42;25.02;;;12.18;;
54261;SDS011;40174;52.364;6.452;2022-08-18T00:45:12;28.00;;;12.88;;
54261;SDS011;40174;52.364;6.452;2022-08-18T00:47:42;27.65;;;11.82;;
54261;SDS011;40174;52.364;6.452;2022-08-18T00:50:13;25.02;;;12.90;;
54261;SDS011;40174;52.364;6.452;2022-08-18T00:52:45;31.30;;;13.18;;
54261;SDS011;40174;52.364;6.452;2022-08-18T00:55:17;23.15;;;12.43;;
54261;SDS011;40174;52.364;6.452;2022-08-18T00:57:45;25.60;;;12.10;;
54261;SDS011;40174;52.364;6.452;2022-08-18T01:00:15;23.63;;;12.20;;
54261;SDS011;40174;52.364;6.452;2022-08-18T01:02:45;24.55;;;12.77;;
54261;SDS011;40174;52.364;6.452;2022-08-18T01:05:17;24.42;;;12.57;;
54261;SDS011;40174;52.364;6.452;2022-08-18T01:07:47;27.48;;;13.35;;
54261;SDS011;40174;52.364;6.452;2022-08-18T01:10:18;29.90;;;12.43;;
54261;SDS011;40174;52.364;6.452;2022-08-18T01:12:46;26.10;;;12.55;;
54261;SDS011;40174;52.364;6.452;2022-08-18T01:15:15;26.05;;;13.10;;
54261;SDS011;40174;52.364;6.452;2022-08-18T01:17:44;32.72;;;13.40;;
54261;SDS011;40174;52.364;6.452;2022-08-18T01:20:32;27.65;;;13.15;;
54261;SDS011;40174;52.364;6.452;2022-08-18T01:23:19;33.03;;;13.77;;
54261;SDS011;40174;52.364;6.452;2022-08-18T01:25:47;38.60;;;15.65;;
54261;SDS011;40174;52.364;6.452;2022-08-18T01:28:24;34.95;;;14.27;;
54261;SDS011;40174;52.364;6.452;2022-08-18T01:30:51;28.65;;;12.95;;
54261;SDS011;40174;52.364;6.452;2022-08-18T01:33:22;24.45;;;12.73;;
54261;SDS011;40174;52.364;6.452;2022-08-18T01:35:53;31.83;;;13.10;;
54261;SDS011;40174;52.364;6.452;2022-08-18T01:38:22;29.27;;;13.10;;
54261;SDS011;40174;52.364;6.452;2022-08-18T01:40:50;30.27;;;14.07;;
54261;SDS011;40174;52.364;6.452;2022-08-18T01:43:18;30.20;;;13.80;;
54261;SDS011;40174;52.364;6.452;2022-08-18T01:45:45;34.88;;;15.43;;
54261;SDS011;40174;52.364;6.452;2022-08-18T01:48:13;33.10;;;14.02;;
54261;SDS011;40174;52.364;6.452;2022-08-18T01:50:41;34.47;;;13.93;;
54261;SDS011;40174;52.364;6.452;2022-08-18T01:53:09;30.58;;;13.93;;
54261;SDS011;40174;52.364;6.452;2022-08-18T01:55:39;32.17;;;14.65;;
54261;SDS011;40174;52.364;6.452;2022-08-18T01:58:09;29.30;;;13.70;;
54261;SDS011;40174;52.364;6.452;2022-08-18T02:00:36;31.05;;;13.63;;
54261;SDS011;40174;52.364;6.452;2022-08-18T02:03:06;29.42;;;13.95;;
54261;SDS011;40174;52.364;6.452;2022-08-18T02:05:41;34.15;;;15.23;;
54261;SDS011;40174;52.364;6.452;2022-08-18T02:08:13;31.27;;;13.77;;
54261;SDS011;40174;52.364;6.452;2022-08-18T02:10:41;33.10;;;14.00;;
54261;SDS011;40174;52.364;6.452;2022-08-18T02:13:08;31.92;;;14.00;;
54261;SDS011;40174;52.364;6.452;2022-08-18T02:15:34;33.83;;;14.88;;
54261;SDS011;40174;52.364;6.452;2022-08-18T02:18:01;36.30;;;14.65;;
54261;SDS011;40174;52.364;6.452;2022-08-18T02:20:27;36.88;;;15.40;;
54261;SDS011;40174;52.364;6.452;2022-08-18T02:22:54;32.47;;;14.50;;
54261;SDS011;40174;52.364;6.452;2022-08-18T02:25:22;33.65;;;14.75;;
54261;SDS011;40174;52.364;6.452;2022-08-18T02:27:51;34.35;;;14.93;;
54261;SDS011;40174;52.364;6.452;2022-08-18T02:30:18;31.50;;;14.63;;
54261;SDS011;40174;52.364;6.452;2022-08-18T02:32:45;38.47;;;16.67;;
54261;SDS011;40174;52.364;6.452;2022-08-18T02:35:12;38.35;;;15.35;;
54261;SDS011;40174;52.364;6.452;2022-08-18T02:37:39;37.88;;;15.40;;
54261;SDS011;40174;52.364;6.452;2022-08-18T02:40:07;40.17;;;16.38;;
54261;SDS011;40174;52.364;6.452;2022-08-18T02:42:35;38.10;;;14.82;;
54261;SDS011;40174;52.364;6.452;2022-08-18T02:45:04;35.78;;;14.02;;
54261;SDS011;40174;52.364;6.452;2022-08-18T02:47:32;38.45;;;15.98;;
54261;SDS011;40174;52.364;6.452;2022-08-18T02:49:59;34.25;;;14.82;;
54261;SDS011;40174;52.364;6.452;2022-08-18T02:52:25;38.65;;;15.65;;
54261;SDS011;40174;52.364;6.452;2022-08-18T02:54:56;37.92;;;15.50;;
54261;SDS011;40174;52.364;6.452;2022-08-18T02:57:23;34.47;;;15.20;;
54261;SDS011;40174;52.364;6.452;2022-08-18T02:59:49;35.83;;;14.95;;
54261;SDS011;40174;52.364;6.452;2022-08-18T03:02:17;43.72;;;15.90;;
54261;SDS011;40174;52.364;6.452;2022-08-18T03:04:44;43.75;;;17.67;;
54261;SDS011;40174;52.364;6.452;2022-08-18T03:07:11;42.85;;;16.55;;
54261;SDS011;40174;52.364;6.452;2022-08-18T03:09:39;38.80;;;15.05;;
54261;SDS011;40174;52.364;6.452;2022-08-18T03:12:06;37.97;;;14.98;;
54261;SDS011;40174;52.364;6.452;2022-08-18T03:14:33;36.17;;;15.02;;
54261;SDS011;40174;52.364;6.452;2022-08-18T03:17:02;41.72;;;15.57;;
54261;SDS011;40174;52.364;6.452;2022-08-18T03:19:31;38.20;;;15.85;;
54261;SDS011;40174;52.364;6.452;2022-08-18T03:21:58;37.80;;;15.25;;
54261;SDS011;40174;52.364;6.452;2022-08-18T03:24:24;41.10;;;14.95;;
54261;SDS011;40174;52.364;6.452;2022-08-18T03:26:53;45.75;;;16.08;;
54261;SDS011;40174;52.364;6.452;2022-08-18T03:29:23;46.38;;;16.05;;
54261;SDS011;40174;52.364;6.452;2022-08-18T03:31:50;39.78;;;15.02;;
54261;SDS011;40174;52.364;6.452;2022-08-18T03:34:18;39.50;;;16.02;;
54261;SDS011;40174;52.364;6.452;2022-08-18T03:36:48;33.13;;;13.45;;
54261;SDS011;40174;52.364;6.452;2022-08-18T03:39:15;45.38;;;16.02;;
54261;SDS011;40174;52.364;6.452;2022-08-18T03:41:44;42.55;;;14.77;;
54261;SDS011;40174;52.364;6.452;2022-08-18T03:44:11;44.67;;;15.68;;
54261;SDS011;40174;52.364;6.452;2022-08-18T03:46:40;38.15;;;15.18;;
54261;SDS011;40174;52.364;6.452;2022-08-18T03:49:07;35.88;;;14.38;;
54261;SDS011;40174;52.364;6.452;2022-08-18T03:51:34;36.97;;;15.50;;
54261;SDS011;40174;52.364;6.452;2022-08-18T03:54:03;33.28;;;14.38;;
54261;SDS011;40174;52.364;6.452;2022-08-18T03:56:32;33.55;;;14.10;;
54261;SDS011;40174;52.364;6.452;2022-08-18T03:59:03;41.38;;;15.07;;
54261;SDS011;40174;52.364;6.452;2022-08-18T04:01:35;35.97;;;13.90;;
54261;SDS011;40174;52.364;6.452;2022-08-18T04:04:04;37.08;;;14.52;;
54261;SDS011;40174;52.364;6.452;2022-08-18T04:06:33;35.75;;;14.80;;
54261;SDS011;40174;52.364;6.452;2022-08-18T04:09:05;33.13;;;13.02;;
54261;SDS011;40174;52.364;6.452;2022-08-18T04:11:34;33.65;;;12.50;;
54261;SDS011;40174;52.364;6.452;2022-08-18T04:14:01;33.00;;;12.55;;
54261;SDS011;40174;52.364;6.452;2022-08-18T04:16:29;31.35;;;14.27;;
54261;SDS011;40174;52.364;6.452;2022-08-18T04:18:59;28.55;;;13.07;;
54261;SDS011;40174;52.364;6.452;2022-08-18T04:21:27;30.67;;;13.23;;
54261;SDS011;40174;52.364;6.452;2022-08-18T04:23:56;28.67;;;12.93;;
54261;SDS011;40174;52.364;6.452;2022-08-18T04:26:30;27.25;;;12.32;;
54261;SDS011;40174;52.364;6.452;2022-08-18T04:28:57;29.67;;;11.85;;
54261;SDS011;40174;52.364;6.452;2022-08-18T04:31:26;31.42;;;12.13;;
54261;SDS011;40174;52.364;6.452;2022-08-18T04:33:53;26.58;;;12.52;;
54261;SDS011;40174;52.364;6.452;2022-08-18T04:36:20;26.45;;;12.10;;
54261;SDS011;40174;52.364;6.452;2022-08-18T04:38:47;30.13;;;12.15;;
54261;SDS011;40174;52.364;6.452;2022-08-18T04:41:13;26.23;;;12.57;;
54261;SDS011;40174;52.364;6.452;2022-08-18T04:43:41;28.35;;;12.18;;
54261;SDS011;40174;52.364;6.452;2022-08-18T04:46:08;27.65;;;12.48;;
54261;SDS011;40174;52.364;6.452;2022-08-18T04:48:36;23.77;;;11.25;;
54261;SDS011;40174;52.364;6.452;2022-08-18T04:51:05;25.27;;;12.43;;
54261;SDS011;40174;52.364;6.452;2022-08-18T04:53:41;27.05;;;11.23;;
54261;SDS011;40174;52.364;6.452;2022-08-18T04:56:12;29.27;;;12.43;;
54261;SDS011;40174;52.364;6.452;2022-08-18T04:58:45;26.85;;;12.20;;
54261;SDS011;40174;52.364;6.452;2022-08-18T05:01:16;30.20;;;11.65;;
54261;SDS011;40174;52.364;6.452;2022-08-18T05:03:46;27.30;;;12.63;;
54261;SDS011;40174;52.364;6.452;2022-08-18T05:06:13;31.25;;;12.70;;
54261;SDS011;40174;52.364;6.452;2022-08-18T05:08:40;29.33;;;12.60;;
54261;SDS011;40174;52.364;6.452;2022-08-18T05:11:07;29.92;;;12.90;;
54261;SDS011;40174;52.364;6.452;2022-08-18T05:13:34;27.55;;;11.95;;
54261;SDS011;40174;52.364;6.452;2022-08-18T05:16:02;28.95;;;12.80;;
54261;SDS011;40174;52.364;6.452;2022-08-18T05:18:29;32.38;;;13.25;;
54261;SDS011;40174;52.364;6.452;2022-08-18T05:20:56;29.42;;;12.13;;
54261;SDS011;40174;52.364;6.452;2022-08-18T05:23:24;30.40;;;12.13;;
54261;SDS011;40174;52.364;6.452;2022-08-18T05:25:55;25.60;;;11.38;;
54261;SDS011;40174;52.364;6.452;2022-08-18T05:28:22;29.30;;;12.43;;
54261;SDS011;40174;52.364;6.452;2022-08-18T05:30:48;28.17;;;12.20;;
54261;SDS011;40174;52.364;6.452;2022-08-18T05:33:16;27.83;;;11.18;;
54261;SDS011;40174;52.364;6.452;2022-08-18T05:35:45;26.42;;;12.05;;
54261;SDS011;40174;52.364;6.452;2022-08-18T05:38:18;23.50;;;10.63;;
54261;SDS011;40174;52.364;6.452;2022-08-18T05:41:02;25.55;;;11.05;;
54261;SDS011;40174;52.364;6.452;2022-08-18T05:43:35;23.35;;;10.60;;
54261;SDS011;40174;52.364;6.452;2022-08-18T05:46:04;26.77;;;10.98;;
54261;SDS011;40174;52.364;6.452;2022-08-18T05:48:33;23.92;;;11.73;;
54261;SDS011;40174;52.364;6.452;2022-08-18T05:51:02;23.48;;;11.05;;
54261;SDS011;40174;52.364;6.452;2022-08-18T05:53:36;25.08;;;11.18;;
54261;SDS011;40174;52.364;6.452;2022-08-18T05:56:22;23.30;;;9.88;;
54261;SDS011;40174;52.364;6.452;2022-08-18T05:59:09;23.88;;;9.68;;
54261;SDS011;40174;52.364;6.452;2022-08-18T06:01:41;20.98;;;9.73;;
54261;SDS011;40174;52.364;6.452;2022-08-18T06:04:15;24.60;;;9.48;;
54261;SDS011;40174;52.364;6.452;2022-08-18T06:06:51;21.05;;;9.93;;
54261;SDS011;40174;52.364;6.452;2022-08-18T06:09:22;23.25;;;9.57;;
54261;SDS011;40174;52.364;6.452;2022-08-18T06:11:54;18.33;;;9.02;;
54261;SDS011;40174;52.364;6.452;2022-08-18T06:14:30;20.73;;;9.63;;
54261;SDS011;40174;52.364;6.452;2022-08-18T06:16:59;19.42;;;9.50;;
54261;SDS011;40174;52.364;6.452;2022-08-18T06:19:40;22.27;;;9.90;;
54261;SDS011;40174;52.364;6.452;2022-08-18T06:22:16;22.30;;;9.40;;
54261;SDS011;40174;52.364;6.452;2022-08-18T06:24:55;20.08;;;9.43;;
54261;SDS011;40174;52.364;6.452;2022-08-18T06:27:31;18.80;;;9.32;;
54261;SDS011;40174;52.364;6.452;2022-08-18T06:30:08;20.33;;;9.48;;
54261;SDS011;40174;52.364;6.452;2022-08-18T06:32:48;18.40;;;9.20;;
54261;SDS011;40174;52.364;6.452;2022-08-18T06:35:33;22.65;;;8.80;;
54261;SDS011;40174;52.364;6.452;2022-08-18T06:38:05;20.20;;;8.25;;
54261;SDS011;40174;52.364;6.452;2022-08-18T06:41:03;17.33;;;8.52;;
54261;SDS011;40174;52.364;6.452;2022-08-18T06:43:37;21.65;;;9.25;;
54261;SDS011;40174;52.364;6.452;2022-08-18T06:46:10;17.77;;;9.02;;
54261;SDS011;40174;52.364;6.452;2022-08-18T06:48:43;25.92;;;9.60;;
54261;SDS011;40174;52.364;6.452;2022-08-18T06:51:20;21.02;;;9.98;;
54261;SDS011;40174;52.364;6.452;2022-08-18T06:53:49;21.73;;;8.23;;
54261;SDS011;40174;52.364;6.452;2022-08-18T06:56:23;17.35;;;8.32;;
54261;SDS011;40174;52.364;6.452;2022-08-18T06:58:52;18.48;;;9.25;;
54261;SDS011;40174;52.364;6.452;2022-08-18T07:01:20;16.52;;;8.07;;
54261;SDS011;40174;52.364;6.452;2022-08-18T07:03:49;19.58;;;8.60;;
54261;SDS011;40174;52.364;6.452;2022-08-18T07:06:26;15.70;;;7.18;;
54261;SDS011;40174;52.364;6.452;2022-08-18T07:11:56;16.33;;;7.88;;
54261;SDS011;40174;52.364;6.452;2022-08-18T07:14:24;15.70;;;7.55;;
54261;SDS011;40174;52.364;6.452;2022-08-18T07:17:04;17.55;;;7.40;;
54261;SDS011;40174;52.364;6.452;2022-08-18T07:19:32;12.90;;;6.80;;
54261;SDS011;40174;52.364;6.452;2022-08-18T07:22:02;16.20;;;6.68;;
54261;SDS011;40174;52.364;6.452;2022-08-18T07:24:31;16.17;;;7.10;;
54261;SDS011;40174;52.364;6.452;2022-08-18T07:27:04;17.02;;;7.00;;
54261;SDS011;40174;52.364;6.452;2022-08-18T07:29:33;14.98;;;5.22;;
54261;SDS011;40174;52.364;6.452;2022-08-18T07:32:03;10.63;;;5.07;;
54261;SDS011;40174;52.364;6.452;2022-08-18T07:34:37;9.98;;;4.20;;
54261;SDS011;40174;52.364;6.452;2022-08-18T07:37:08;8.93;;;4.43;;
54261;SDS011;40174;52.364;6.452;2022-08-18T07:39:46;13.70;;;4.82;;
54261;SDS011;40174;52.364;6.452;2022-08-18T07:42:18;10.57;;;4.60;;
54261;SDS011;40174;52.364;6.452;2022-08-18T07:44:59;8.52;;;4.03;;
54261;SDS011;40174;52.364;6.452;2022-08-18T07:47:31;10.75;;;4.85;;
54261;SDS011;40174;52.364;6.452;2022-08-18T07:50:05;10.35;;;4.18;;
54261;SDS011;40174;52.364;6.452;2022-08-18T07:52:35;7.18;;;3.85;;
54261;SDS011;40174;52.364;6.452;2022-08-18T07:55:05;9.02;;;3.92;;
54261;SDS011;40174;52.364;6.452;2022-08-18T07:57:41;9.48;;;4.25;;
54261;SDS011;40174;52.364;6.452;2022-08-18T08:00:18;9.98;;;4.53;;
54261;SDS011;40174;52.364;6.452;2022-08-18T08:02:59;10.40;;;4.30;;
54261;SDS011;40174;52.364;6.452;2022-08-18T08:05:41;9.88;;;3.58;;
54261;SDS011;40174;52.364;6.452;2022-08-18T08:08:19;11.27;;;4.68;;
54261;SDS011;40174;52.364;6.452;2022-08-18T08:10:54;13.10;;;4.00;;
54261;SDS011;40174;52.364;6.452;2022-08-18T08:13:31;12.18;;;3.13;;
54261;SDS011;40174;52.364;6.452;2022-08-18T08:16:10;8.48;;;3.45;;
54261;SDS011;40174;52.364;6.452;2022-08-18T08:18:45;6.68;;;3.10;;
54261;SDS011;40174;52.364;6.452;2022-08-18T08:21:22;11.02;;;3.78;;
54261;SDS011;40174;52.364;6.452;2022-08-18T08:23:56;6.68;;;3.20;;
54261;SDS011;40174;52.364;6.452;2022-08-18T08:26:35;8.32;;;3.35;;
54261;SDS011;40174;52.364;6.452;2022-08-18T08:29:16;7.53;;;2.92;;
54261;SDS011;40174;52.364;6.452;2022-08-18T08:31:53;7.75;;;2.75;;
54261;SDS011;40174;52.364;6.452;2022-08-18T08:34:26;4.97;;;2.88;;
54261;SDS011;40174;52.364;6.452;2022-08-18T08:37:01;6.53;;;2.65;;
54261;SDS011;40174;52.364;6.452;2022-08-18T08:39:33;6.00;;;2.42;;
54261;SDS011;40174;52.364;6.452;2022-08-18T08:42:06;5.05;;;2.40;;
54261;SDS011;40174;52.364;6.452;2022-08-18T08:44:38;4.80;;;2.45;;
54261;SDS011;40174;52.364;6.452;2022-08-18T08:47:09;4.35;;;2.00;;
54261;SDS011;40174;52.364;6.452;2022-08-18T08:49:43;5.88;;;2.08;;
54261;SDS011;40174;52.364;6.452;2022-08-18T08:52:16;4.20;;;1.90;;
54261;SDS011;40174;52.364;6.452;2022-08-18T08:54:51;4.95;;;1.75;;
54261;SDS011;40174;52.364;6.452;2022-08-18T08:57:25;5.13;;;1.88;;
54261;SDS011;40174;52.364;6.452;2022-08-18T08:59:56;9.15;;;2.40;;
54261;SDS011;40174;52.364;6.452;2022-08-18T09:02:29;3.88;;;1.92;;
54261;SDS011;40174;52.364;6.452;2022-08-18T09:05:05;5.28;;;1.85;;
54261;SDS011;40174;52.364;6.452;2022-08-18T09:07:38;3.90;;;1.90;;
54261;SDS011;40174;52.364;6.452;2022-08-18T09:10:25;8.20;;;2.30;;
54261;SDS011;40174;52.364;6.452;2022-08-18T09:13:08;5.80;;;2.00;;
54261;SDS011;40174;52.364;6.452;2022-08-18T09:16:13;3.80;;;1.70;;
54261;SDS011;40174;52.364;6.452;2022-08-18T09:18:49;5.05;;;1.92;;
54261;SDS011;40174;52.364;6.452;2022-08-18T09:21:28;7.60;;;2.30;;
54261;SDS011;40174;52.364;6.452;2022-08-18T09:24:05;6.43;;;2.00;;
54261;SDS011;40174;52.364;6.452;2022-08-18T09:26:40;7.38;;;2.60;;
54261;SDS011;40174;52.364;6.452;2022-08-18T09:29:13;5.88;;;2.10;;
54261;SDS011;40174;52.364;6.452;2022-08-18T09:31:47;4.65;;;2.28;;
54261;SDS011;40174;52.364;6.452;2022-08-18T09:34:37;5.85;;;2.13;;
54261;SDS011;40174;52.364;6.452;2022-08-18T09:37:17;6.53;;;1.80;;
54261;SDS011;40174;52.364;6.452;2022-08-18T09:39:49;7.20;;;2.30;;
54261;SDS011;40174;52.364;6.452;2022-08-18T09:42:45;4.90;;;2.22;;
54261;SDS011;40174;52.364;6.452;2022-08-18T09:48:23;4.05;;;1.70;;
54261;SDS011;40174;52.364;6.452;2022-08-18T09:50:57;3.53;;;1.40;;
54261;SDS011;40174;52.364;6.452;2022-08-18T09:59:57;6.07;;;1.92;;
54261;SDS011;40174;52.364;6.452;2022-08-18T10:06:03;6.07;;;1.65;;
54261;SDS011;40174;52.364;6.452;2022-08-18T10:08:51;5.78;;;2.22;;
54261;SDS011;40174;52.364;6.452;2022-08-18T10:11:42;3.20;;;1.80;;
54261;SDS011;40174;52.364;6.452;2022-08-18T10:14:23;5.00;;;2.28;;
54261;SDS011;40174;52.364;6.452;2022-08-18T10:17:02;3.95;;;1.80;;
54261;SDS011;40174;52.364;6.452;2022-08-18T10:19:41;5.50;;;1.88;;
54261;SDS011;40174;52.364;6.452;2022-08-18T10:22:15;5.20;;;1.70;;
54261;SDS011;40174;52.364;6.452;2022-08-18T10:25:02;4.97;;;1.90;;
54261;SDS011;40174;52.364;6.452;2022-08-18T10:27:34;4.10;;;1.77;;
54261;SDS011;40174;52.364;6.452;2022-08-18T10:36:36;5.45;;;2.00;;
54261;SDS011;40174;52.364;6.452;2022-08-18T10:39:09;5.28;;;1.60;;
54261;SDS011;40174;52.364;6.452;2022-08-18T10:41:37;4.20;;;1.55;;
54261;SDS011;40174;52.364;6.452;2022-08-18T10:44:16;4.35;;;1.83;;
54261;SDS011;40174;52.364;6.452;2022-08-18T10:46:47;3.53;;;1.83;;
54261;SDS011;40174;52.364;6.452;2022-08-18T10:49:18;3.40;;;1.73;;
54261;SDS011;40174;52.364;6.452;2022-08-18T10:51:58;2.95;;;1.75;;
54261;SDS011;40174;52.364;6.452;2022-08-18T10:54:51;5.05;;;1.88;;
54261;SDS011;40174;52.364;6.452;2022-08-18T10:57:31;4.70;;;1.98;;
54261;SDS011;40174;52.364;6.452;2022-08-18T11:00:09;2.85;;;1.77;;
54261;SDS011;40174;52.364;6.452;2022-08-18T11:02:49;5.20;;;1.90;;
54261;SDS011;40174;52.364;6.452;2022-08-18T11:05:28;6.55;;;1.95;;
54261;SDS011;40174;52.364;6.452;2022-08-18T11:07:57;6.38;;;2.15;;
54261;SDS011;40174;52.364;6.452;2022-08-18T11:10:34;5.65;;;1.80;;
54261;SDS011;40174;52.364;6.452;2022-08-18T11:13:04;3.10;;;1.65;;
54261;SDS011;40174;52.364;6.452;2022-08-18T11:15:38;5.15;;;2.20;;
54261;SDS011;40174;52.364;6.452;2022-08-18T11:18:24;4.53;;;1.98;;
54261;SDS011;40174;52.364;6.452;2022-08-18T11:26:33;4.15;;;1.70;;
54261;SDS011;40174;52.364;6.452;2022-08-18T11:29:15;2.95;;;1.15;;
54261;SDS011;40174;52.364;6.452;2022-08-18T11:31:46;2.92;;;1.10;;
54261;SDS011;40174;52.364;6.452;2022-08-18T11:34:13;3.30;;;1.58;;
54261;SDS011;40174;52.364;6.452;2022-08-18T11:36:43;6.10;;;2.28;;
54261;SDS011;40174;52.364;6.452;2022-08-18T11:39:23;4.43;;;1.88;;
54261;SDS011;40174;52.364;6.452;2022-08-18T11:41:49;5.65;;;1.92;;
54261;SDS011;40174;52.364;6.452;2022-08-18T11:44:17;5.80;;;2.00;;
54261;SDS011;40174;52.364;6.452;2022-08-18T11:46:46;4.15;;;1.50;;
54261;SDS011;40174;52.364;6.452;2022-08-18T11:49:14;5.38;;;2.00;;
54261;SDS011;40174;52.364;6.452;2022-08-18T11:51:53;3.28;;;1.42;;
54261;SDS011;40174;52.364;6.452;2022-08-18T11:54:30;2.55;;;1.30;;
54261;SDS011;40174;52.364;6.452;2022-08-18T12:03:21;4.43;;;1.50;;
54261;SDS011;40174;52.364;6.452;2022-08-18T12:05:55;5.03;;;1.92;;
54261;SDS011;40174;52.364;6.452;2022-08-18T12:08:26;3.65;;;1.50;;
54261;SDS011;40174;52.364;6.452;2022-08-18T12:11:02;4.53;;;1.50;;
54261;SDS011;40174;52.364;6.452;2022-08-18T12:13:30;3.58;;;1.70;;
54261;SDS011;40174;52.364;6.452;2022-08-18T12:16:07;4.57;;;1.77;;
54261;SDS011;40174;52.364;6.452;2022-08-18T12:18:39;8.23;;;1.90;;
54261;SDS011;40174;52.364;6.452;2022-08-18T12:21:06;7.45;;;1.70;;
54261;SDS011;40174;52.364;6.452;2022-08-18T12:23:35;7.07;;;2.05;;
54261;SDS011;40174;52.364;6.452;2022-08-18T12:26:05;5.25;;;1.77;;
54261;SDS011;40174;52.364;6.452;2022-08-18T12:28:32;5.72;;;2.00;;
54261;SDS011;40174;52.364;6.452;2022-08-18T12:30:59;11.13;;;3.13;;
54261;SDS011;40174;52.364;6.452;2022-08-18T12:33:25;9.55;;;2.92;;
54261;SDS011;40174;52.364;6.452;2022-08-18T12:35:52;7.13;;;2.75;;
54261;SDS011;40174;52.364;6.452;2022-08-18T12:38:18;6.25;;;2.17;;
54261;SDS011;40174;52.364;6.452;2022-08-18T12:40:45;8.10;;;2.03;;
54261;SDS011;40174;52.364;6.452;2022-08-18T12:43:13;7.07;;;2.70;;
54261;SDS011;40174;52.364;6.452;2022-08-18T12:45:39;7.45;;;2.25;;
54261;SDS011;40174;52.364;6.452;2022-08-18T12:48:06;9.43;;;2.80;;
54261;SDS011;40174;52.364;6.452;2022-08-18T12:50:33;5.65;;;2.35;;
54261;SDS011;40174;52.364;6.452;2022-08-18T12:53:00;5.00;;;2.13;;
54261;SDS011;40174;52.364;6.452;2022-08-18T12:55:27;5.30;;;1.90;;
54261;SDS011;40174;52.364;6.452;2022-08-18T12:57:56;5.28;;;2.40;;
54261;SDS011;40174;52.364;6.452;2022-08-18T13:00:24;3.67;;;1.85;;
54261;SDS011;40174;52.364;6.452;2022-08-18T13:02:51;6.25;;;2.10;;
54261;SDS011;40174;52.364;6.452;2022-08-18T13:05:17;3.30;;;1.73;;
54261;SDS011;40174;52.364;6.452;2022-08-18T13:07:45;5.28;;;1.42;;
54261;SDS011;40174;52.364;6.452;2022-08-18T13:10:11;5.18;;;1.90;;
54261;SDS011;40174;52.364;6.452;2022-08-18T13:12:38;2.63;;;1.83;;
54261;SDS011;40174;52.364;6.452;2022-08-18T13:15:05;3.83;;;1.52;;
54261;SDS011;40174;52.364;6.452;2022-08-18T13:17:35;3.28;;;1.73;;
54261;SDS011;40174;52.364;6.452;2022-08-18T13:20:03;7.38;;;2.08;;
54261;SDS011;40174;52.364;6.452;2022-08-18T13:22:33;3.90;;;1.67;;
54261;SDS011;40174;52.364;6.452;2022-08-18T13:25:00;3.85;;;1.73;;
54261;SDS011;40174;52.364;6.452;2022-08-18T13:27:27;2.53;;;1.40;;
54261;SDS011;40174;52.364;6.452;2022-08-18T13:29:53;4.65;;;1.60;;
54261;SDS011;40174;52.364;6.452;2022-08-18T13:32:20;2.75;;;1.55;;
54261;SDS011;40174;52.364;6.452;2022-08-18T13:34:49;4.70;;;1.67;;
54261;SDS011;40174;52.364;6.452;2022-08-18T13:37:15;3.42;;;1.75;;
54261;SDS011;40174;52.364;6.452;2022-08-18T13:39:42;3.97;;;1.63;;
54261;SDS011;40174;52.364;6.452;2022-08-18T13:42:09;4.72;;;1.35;;
54261;SDS011;40174;52.364;6.452;2022-08-18T13:44:35;2.30;;;1.50;;
54261;SDS011;40174;52.364;6.452;2022-08-18T13:47:05;2.95;;;1.25;;
54261;SDS011;40174;52.364;6.452;2022-08-18T13:49:32;2.38;;;1.42;;
54261;SDS011;40174;52.364;6.452;2022-08-18T13:52:00;2.90;;;1.38;;
54261;SDS011;40174;52.364;6.452;2022-08-18T13:54:28;3.00;;;1.50;;
54261;SDS011;40174;52.364;6.452;2022-08-18T13:56:57;5.47;;;1.35;;
54261;SDS011;40174;52.364;6.452;2022-08-18T13:59:24;2.25;;;1.15;;
54261;SDS011;40174;52.364;6.452;2022-08-18T14:01:55;2.53;;;1.65;;
54261;SDS011;40174;52.364;6.452;2022-08-18T14:04:23;2.60;;;1.27;;
54261;SDS011;40174;52.364;6.452;2022-08-18T14:06:49;3.22;;;1.60;;
54261;SDS011;40174;52.364;6.452;2022-08-18T14:09:18;3.50;;;1.63;;
54261;SDS011;40174;52.364;6.452;2022-08-18T14:11:44;2.95;;;1.63;;
54261;SDS011;40174;52.364;6.452;2022-08-18T14:14:12;2.97;;;1.50;;
54261;SDS011;40174;52.364;6.452;2022-08-18T14:16:39;1.95;;;1.17;;
54261;SDS011;40174;52.364;6.452;2022-08-18T14:19:05;2.95;;;1.50;;
54261;SDS011;40174;52.364;6.452;2022-08-18T14:21:50;4.55;;;1.65;;
54261;SDS011;40174;52.364;6.452;2022-08-18T14:24:33;4.50;;;1.90;;
54261;SDS011;40174;52.364;6.452;2022-08-18T14:27:18;3.72;;;2.00;;
54261;SDS011;40174;52.364;6.452;2022-08-18T14:29:46;2.55;;;1.33;;
54261;SDS011;40174;52.364;6.452;2022-08-18T14:32:13;2.95;;;1.77;;
54261;SDS011;40174;52.364;6.452;2022-08-18T14:34:44;3.65;;;1.38;;
54261;SDS011;40174;52.364;6.452;2022-08-18T14:37:11;3.50;;;1.65;;
54261;SDS011;40174;52.364;6.452;2022-08-18T14:39:39;4.15;;;1.90;;
54261;SDS011;40174;52.364;6.452;2022-08-18T14:42:05;2.88;;;1.60;;
54261;SDS011;40174;52.364;6.452;2022-08-18T14:44:32;2.90;;;1.60;;
54261;SDS011;40174;52.364;6.452;2022-08-18T14:46:59;3.55;;;1.60;;
54261;SDS011;40174;52.364;6.452;2022-08-18T14:49:25;6.32;;;1.85;;
54261;SDS011;40174;52.364;6.452;2022-08-18T14:51:55;5.05;;;1.83;;
54261;SDS011;40174;52.364;6.452;2022-08-18T14:54:22;3.58;;;1.70;;
54261;SDS011;40174;52.364;6.452;2022-08-18T14:56:50;4.18;;;1.70;;
54261;SDS011;40174;52.364;6.452;2022-08-18T14:59:17;4.28;;;1.95;;
54261;SDS011;40174;52.364;6.452;2022-08-18T15:01:43;8.68;;;2.05;;
54261;SDS011;40174;52.364;6.452;2022-08-18T15:04:10;2.40;;;1.40;;
54261;SDS011;40174;52.364;6.452;2022-08-18T15:06:39;3.78;;;1.75;;
54261;SDS011;40174;52.364;6.452;2022-08-18T15:09:05;5.05;;;2.00;;
54261;SDS011;40174;52.364;6.452;2022-08-18T15:11:32;2.92;;;1.55;;
54261;SDS011;40174;52.364;6.452;2022-08-18T15:14:00;3.90;;;1.45;;
54261;SDS011;40174;52.364;6.452;2022-08-18T15:16:26;3.08;;;1.55;;
54261;SDS011;40174;52.364;6.452;2022-08-18T15:18:58;3.90;;;1.50;;
54261;SDS011;40174;52.364;6.452;2022-08-18T15:21:25;3.30;;;1.55;;
54261;SDS011;40174;52.364;6.452;2022-08-18T15:24:10;2.67;;;1.57;;
54261;SDS011;40174;52.364;6.452;2022-08-18T15:26:55;2.58;;;1.65;;
54261;SDS011;40174;52.364;6.452;2022-08-18T15:29:24;3.03;;;1.70;;
54261;SDS011;40174;52.364;6.452;2022-08-18T15:31:51;2.90;;;1.40;;
54261;SDS011;40174;52.364;6.452;2022-08-18T15:34:18;2.47;;;1.52;;